Time;durP1;ratioP1;P1;durP2;ratioP2;P2;SDS_P1;SDS_P2;PMS_P1;PMS_P2;Temp;Humidity;BMP_temperature;BMP_pressure;BME280_temperature;BME280_humidity;BME280_pressure;Samples;Min_cycle;Max_cycle;Signal;HPM_P1;HPM_P2
2022/07/02 00:01:05;;;;;;;;;2.00;2.00;;;;;;;;5134957;27;45741;-66
2022/07/02 00:03:32;;;;;;;;;3.00;3.00;;;;;;;;5130470;27;45448;-66
2022/07/02 00:05:58;;;;;;;;;4.00;4.00;;;;;;;;5130832;27;45875;-68
2022/07/02 00:08:24;;;;;;;;;3.75;2.75;;;;;;;;5130081;27;45473;-66
2022/07/02 00:10:50;;;;;;;;;3.50;3.50;;;;;;;;5132477;27;45574;-68
2022/07/02 00:13:16;;;;;;;;;3.50;3.50;;;;;;;;5133324;27;45530;-67
2022/07/02 00:15:42;;;;;;;;;3.00;3.00;;;;;;;;5133639;27;47339;-68
2022/07/02 00:18:07;;;;;;;;;2.25;2.25;;;;;;;;5114100;27;46066;-65
2022/07/02 00:20:32;;;;;;;;;4.50;3.50;;;;;;;;5115932;27;46056;-67
2022/07/02 00:22:57;;;;;;;;;3.50;3.00;;;;;;;;5134747;27;48144;-67
2022/07/02 00:25:23;;;;;;;;;3.75;3.75;;;;;;;;5115402;27;46351;-67
2022/07/02 00:27:49;;;;;;;;;3.00;3.00;;;;;;;;5133975;27;45991;-67
2022/07/02 00:30:14;;;;;;;;;3.00;3.00;;;;;;;;5129668;27;45709;-67
2022/07/02 00:32:41;;;;;;;;;3.75;3.75;;;;;;;;5133716;27;45626;-66
2022/07/02 00:35:08;;;;;;;;;2.75;2.75;;;;;;;;5134569;27;45628;-67
2022/07/02 00:37:35;;;;;;;;;3.50;3.50;;;;;;;;5130667;27;48152;-68
2022/07/02 00:40:00;;;;;;;;;3.50;3.00;;;;;;;;5115974;27;45527;-67
2022/07/02 00:42:26;;;;;;;;;5.00;5.00;;;;;;;;5113497;27;45566;-67
2022/07/02 00:44:51;;;;;;;;;5.25;5.25;;;;;;;;5114314;27;46519;-67
2022/07/02 00:47:16;;;;;;;;;3.00;3.00;;;;;;;;5134500;27;45973;-66
2022/07/02 00:49:42;;;;;;;;;4.25;4.25;;;;;;;;5114574;27;45556;-67
2022/07/02 00:52:07;;;;;;;;;4.00;4.00;;;;;;;;5134864;27;45877;-67
2022/07/02 00:54:33;;;;;;;;;5.25;5.25;;;;;;;;5113459;27;46395;-67
2022/07/02 00:56:58;;;;;;;;;6.75;6.75;;;;;;;;5132561;27;45562;-68
2022/07/02 00:59:24;;;;;;;;;4.75;4.25;;;;;;;;5134596;27;45514;-67
2022/07/02 01:01:50;;;;;;;;;8.75;6.50;;;;;;;;5134019;27;45612;-68
2022/07/02 01:04:15;;;;;;;;;4.00;4.00;;;;;;;;5121581;27;48848;-68
2022/07/02 01:06:41;;;;;;;;;3.00;3.00;;;;;;;;5130941;27;45637;-67
2022/07/02 01:11:53;;;;;;;;;4.75;3.50;;;;;;;;5129770;27;45530;-67
2022/07/02 01:14:19;;;;;;;;;3.00;3.00;;;;;;;;5132526;27;46118;-66
2022/07/02 01:16:44;;;;;;;;;3.50;3.50;;;;;;;;5113152;27;45583;-67
2022/07/02 01:19:10;;;;;;;;;5.25;4.25;;;;;;;;5134763;27;45487;-67
2022/07/02 01:21:37;;;;;;;;;3.25;3.25;;;;;;;;5131460;27;45789;-67
2022/07/02 01:24:02;;;;;;;;;4.25;3.00;;;;;;;;5129445;27;46494;-66
2022/07/02 01:26:27;;;;;;;;;4.75;3.50;;;;;;;;5130283;27;45423;-67
2022/07/02 01:28:52;;;;;;;;;4.25;4.25;;;;;;;;5130169;27;45536;-66
2022/07/02 01:31:19;;;;;;;;;4.00;4.00;;;;;;;;5109139;27;45429;-66
2022/07/02 01:33:44;;;;;;;;;5.25;3.75;;;;;;;;5127935;27;46723;-67
2022/07/02 01:36:09;;;;;;;;;3.25;3.25;;;;;;;;5131474;27;45900;-67
2022/07/02 01:38:34;;;;;;;;;3.00;2.25;;;;;;;;5128063;27;45622;-67
2022/07/02 01:43:43;;;;;;;;;3.75;3.75;;;;;;;;5129347;27;46170;-68
2022/07/02 01:46:09;;;;;;;;;4.25;3.25;;;;;;;;5115864;27;45734;-67
2022/07/02 01:48:34;;;;;;;;;4.75;2.50;;;;;;;;5114137;27;45904;-68
2022/07/02 01:50:59;;;;;;;;;2.75;2.75;;;;;;;;5128396;27;45466;-68
2022/07/02 01:53:25;;;;;;;;;4.00;3.75;;;;;;;;5133516;27;46434;-67
2022/07/02 01:55:50;;;;;;;;;4.25;3.00;;;;;;;;5129271;27;45483;-68
2022/07/02 01:58:15;;;;;;;;;3.00;3.00;;;;;;;;5134318;27;45358;-67
2022/07/02 02:00:40;;;;;;;;;4.75;3.50;;;;;;;;5134225;27;45400;-67
2022/07/02 02:03:05;;;;;;;;;5.00;5.00;;;;;;;;5109453;27;46627;-67
2022/07/02 02:05:31;;;;;;;;;4.25;4.25;;;;;;;;5132765;27;45415;-67
2022/07/02 02:07:56;;;;;;;;;3.75;3.50;;;;;;;;5128286;27;45876;-67
2022/07/02 02:10:21;;;;;;;;;4.00;3.00;;;;;;;;5133008;27;45801;-67
2022/07/02 02:12:46;;;;;;;;;4.00;4.00;;;;;;;;5114611;27;46701;-68
2022/07/02 02:15:11;;;;;;;;;4.00;4.00;;;;;;;;5131001;27;45772;-68
2022/07/02 02:17:37;;;;;;;;;3.00;3.00;;;;;;;;5112905;27;45765;-68
2022/07/02 02:20:02;;;;;;;;;4.00;4.00;;;;;;;;5125428;27;45838;-67
2022/07/02 02:22:27;;;;;;;;;7.25;5.25;;;;;;;;5101051;27;47557;-66
2022/07/02 02:24:53;;;;;;;;;3.25;3.25;;;;;;;;5116262;27;48024;-67
2022/07/02 02:27:18;;;;;;;;;7.00;7.00;;;;;;;;5115210;27;45904;-68
2022/07/02 02:29:43;;;;;;;;;4.00;4.00;;;;;;;;5119928;27;45514;-68
2022/07/02 02:32:08;;;;;;;;;5.00;5.00;;;;;;;;5101024;27;47242;-68
2022/07/02 02:34:33;;;;;;;;;6.00;4.75;;;;;;;;5119222;27;46270;-68
2022/07/02 02:36:59;;;;;;;;;4.00;4.00;;;;;;;;5117034;27;45559;-67
2022/07/02 02:39:24;;;;;;;;;7.50;5.00;;;;;;;;5114889;27;45432;-68
2022/07/02 02:41:49;;;;;;;;;5.00;5.00;;;;;;;;5118712;27;46020;-67
2022/07/02 02:44:14;;;;;;;;;7.00;5.00;;;;;;;;5091349;27;46078;-67
2022/07/02 02:46:39;;;;;;;;;4.00;4.00;;;;;;;;5128312;27;45424;-67
2022/07/02 02:49:05;;;;;;;;;7.75;6.75;;;;;;;;5117519;27;45461;-67
2022/07/02 02:51:30;;;;;;;;;4.75;4.75;;;;;;;;5095896;27;46383;-67
2022/07/02 02:53:55;;;;;;;;;5.50;5.50;;;;;;;;5117648;27;45764;-67
2022/07/02 02:56:20;;;;;;;;;6.00;6.00;;;;;;;;5119362;27;45504;-67
2022/07/02 02:58:45;;;;;;;;;5.25;5.25;;;;;;;;5119457;27;45417;-67
2022/07/02 03:01:11;;;;;;;;;6.00;5.00;;;;;;;;5099437;27;46356;-67
2022/07/02 03:03:36;;;;;;;;;4.00;4.00;;;;;;;;5114544;27;45890;-67
2022/07/02 03:06:01;;;;;;;;;6.00;6.00;;;;;;;;5116873;27;45444;-67
2022/07/02 03:08:26;;;;;;;;;5.00;5.00;;;;;;;;5119034;27;45660;-67
2022/07/02 03:10:51;;;;;;;;;6.00;4.75;;;;;;;;5119089;27;46504;-69
2022/07/02 03:13:17;;;;;;;;;4.75;4.25;;;;;;;;5118889;27;45509;-65
2022/07/02 03:15:42;;;;;;;;;6.75;4.00;;;;;;;;5114755;27;45751;-66
2022/07/02 03:18:07;;;;;;;;;3.75;3.00;;;;;;;;5116083;27;45995;-67
2022/07/02 03:20:32;;;;;;;;;3.75;3.00;;;;;;;;5118794;27;45553;-66
2022/07/02 03:22:58;;;;;;;;;6.25;6.25;;;;;;;;5118705;27;45485;-67
2022/07/02 03:25:24;;;;;;;;;4.50;4.00;;;;;;;;5120996;27;45680;-67
2022/07/02 03:27:49;;;;;;;;;5.75;4.00;;;;;;;;5118313;27;45484;-67
2022/07/02 03:30:14;;;;;;;;;4.00;4.00;;;;;;;;5118132;27;46082;-68
2022/07/02 03:32:40;;;;;;;;;4.00;4.00;;;;;;;;5122113;27;45486;-67
2022/07/02 03:35:05;;;;;;;;;5.00;5.00;;;;;;;;5103532;27;45595;-67
2022/07/02 03:37:30;;;;;;;;;4.75;4.25;;;;;;;;5103634;27;45534;-66
2022/07/02 03:39:55;;;;;;;;;6.25;5.00;;;;;;;;5100095;27;48288;-66
2022/07/02 03:42:21;;;;;;;;;3.75;3.75;;;;;;;;5117708;27;45451;-66
2022/07/02 03:44:46;;;;;;;;;5.00;4.75;;;;;;;;5122147;27;46186;-67
2022/07/02 03:47:11;;;;;;;;;4.50;3.00;;;;;;;;5121804;27;45504;-67
2022/07/02 03:49:36;;;;;;;;;3.25;3.25;;;;;;;;5121992;27;45420;-66
2022/07/02 03:52:02;;;;;;;;;4.75;4.75;;;;;;;;5119693;27;45436;-66
2022/07/02 03:54:27;;;;;;;;;4.75;4.75;;;;;;;;5098637;27;45991;-66
2022/07/02 03:56:52;;;;;;;;;4.00;4.00;;;;;;;;5121287;27;45721;-66
2022/07/02 03:59:17;;;;;;;;;3.50;3.50;;;;;;;;5121989;27;45635;-67
2022/07/02 04:01:43;;;;;;;;;3.00;3.00;;;;;;;;5103322;27;45513;-67
2022/07/02 04:04:08;;;;;;;;;6.00;5.25;;;;;;;;5120465;27;45423;-67
2022/07/02 04:06:33;;;;;;;;;4.50;4.00;;;;;;;;5117005;27;45652;-68
2022/07/02 04:08:58;;;;;;;;;5.00;5.00;;;;;;;;5119853;27;46057;-67
2022/07/02 04:11:25;;;;;;;;;5.75;5.75;;;;;;;;5121761;27;45424;-66
2022/07/02 04:13:50;;;;;;;;;5.00;5.00;;;;;;;;5121699;27;45388;-66
2022/07/02 04:16:15;;;;;;;;;7.25;4.75;;;;;;;;5102626;27;45516;-66
2022/07/02 04:18:40;;;;;;;;;5.00;5.00;;;;;;;;5116667;27;46653;-65
2022/07/02 04:21:06;;;;;;;;;6.00;5.25;;;;;;;;5118684;27;45723;-65
2022/07/02 04:23:31;;;;;;;;;7.00;5.25;;;;;;;;5103050;27;45746;-68
2022/07/02 04:25:56;;;;;;;;;5.50;4.00;;;;;;;;5121758;27;45329;-68
2022/07/02 04:28:23;;;;;;;;;9.75;6.00;;;;;;;;5121491;27;49834;-67
2022/07/02 04:30:48;;;;;;;;;3.50;3.50;;;;;;;;5117452;27;45790;-68
2022/07/02 04:33:13;;;;;;;;;6.00;6.00;;;;;;;;5117699;27;45437;-68
2022/07/02 04:35:39;;;;;;;;;6.00;6.00;;;;;;;;5120934;27;45697;-67
2022/07/02 04:38:05;;;;;;;;;6.00;5.00;;;;;;;;5120710;27;45675;-68
2022/07/02 04:40:30;;;;;;;;;8.00;7.00;;;;;;;;5121365;27;45516;-68
2022/07/02 04:42:55;;;;;;;;;7.75;6.25;;;;;;;;5118121;27;45633;-68
2022/07/02 04:45:20;;;;;;;;;5.00;5.00;;;;;;;;5116532;27;45541;-68
2022/07/02 04:47:46;;;;;;;;;5.00;5.00;;;;;;;;5102172;27;46227;-66
2022/07/02 04:50:11;;;;;;;;;8.25;6.75;;;;;;;;5120974;27;45884;-67
2022/07/02 04:52:36;;;;;;;;;5.00;5.00;;;;;;;;5121076;27;45727;-67
2022/07/02 04:55:01;;;;;;;;;5.25;5.25;;;;;;;;5118696;27;45504;-65
2022/07/02 04:57:26;;;;;;;;;5.00;5.00;;;;;;;;5114034;27;46467;-66
2022/07/02 04:59:52;;;;;;;;;6.25;5.25;;;;;;;;5119995;27;45387;-66
2022/07/02 05:02:17;;;;;;;;;4.25;4.25;;;;;;;;5121113;27;45836;-67
2022/07/02 05:04:42;;;;;;;;;2.00;1.75;;;;;;;;5102288;27;45530;-67
2022/07/02 05:07:07;;;;;;;;;7.25;6.50;;;;;;;;5100733;27;47646;-66
2022/07/02 05:09:33;;;;;;;;;0.00;0.00;;;;;;;;5097612;27;45807;-67
2022/07/02 05:11:58;;;;;;;;;9.75;8.75;;;;;;;;5100627;27;46177;-68
2022/07/02 05:14:23;;;;;;;;;7.75;6.25;;;;;;;;5121062;27;45747;-75
2022/07/02 05:16:48;;;;;;;;;7.25;7.00;;;;;;;;5120897;27;46192;-71
2022/07/02 05:19:14;;;;;;;;;6.00;5.25;;;;;;;;5120151;27;45612;-70
2022/07/02 05:21:41;;;;;;;;;6.75;6.75;;;;;;;;5116072;27;45379;-71
2022/07/02 05:24:06;;;;;;;;;7.25;7.25;;;;;;;;5117884;27;45514;-69
2022/07/02 05:26:32;;;;;;;;;9.00;9.00;;;;;;;;5101494;27;47437;-70
2022/07/02 05:28:57;;;;;;;;;7.00;7.00;;;;;;;;5126178;27;46274;-70
2022/07/02 05:31:22;;;;;;;;;6.25;5.75;;;;;;;;5132169;27;46061;-70
2022/07/02 05:33:47;;;;;;;;;8.00;8.00;;;;;;;;5116334;27;45512;-70
2022/07/02 05:36:13;;;;;;;;;8.00;8.00;;;;;;;;5116741;27;45751;-70
2022/07/02 05:38:38;;;;;;;;;7.00;7.00;;;;;;;;5120522;27;45541;-70
2022/07/02 05:41:03;;;;;;;;;9.00;7.25;;;;;;;;5120563;27;45696;-70
2022/07/02 05:43:28;;;;;;;;;8.25;7.00;;;;;;;;5120412;27;45792;-70
2022/07/02 05:45:54;;;;;;;;;8.00;6.25;;;;;;;;5116795;27;45678;-70
2022/07/02 05:48:19;;;;;;;;;9.00;7.75;;;;;;;;5105187;27;45480;-70
2022/07/02 05:50:44;;;;;;;;;12.75;9.00;;;;;;;;5129854;27;45929;-70
2022/07/02 05:53:09;;;;;;;;;10.50;10.50;;;;;;;;5124991;27;45598;-68
2022/07/02 05:55:35;;;;;;;;;8.00;8.00;;;;;;;;5120319;27;45598;-69
2022/07/02 05:58:00;;;;;;;;;10.50;9.25;;;;;;;;5098847;27;45679;-70
2022/07/02 06:00:25;;;;;;;;;8.00;7.00;;;;;;;;5115726;27;45410;-70
2022/07/02 06:02:50;;;;;;;;;11.00;8.00;;;;;;;;5101018;27;45531;-69
2022/07/02 06:07:59;;;;;;;;;11.00;10.75;;;;;;;;5119772;27;45558;-70
2022/07/02 06:10:25;;;;;;;;;10.00;9.00;;;;;;;;5119730;27;45883;-69
2022/07/02 06:12:51;;;;;;;;;9.00;8.50;;;;;;;;5097195;27;45630;-69
2022/07/02 06:15:17;;;;;;;;;11.75;8.75;;;;;;;;5096683;27;47741;-68
2022/07/02 06:17:42;;;;;;;;;12.50;10.75;;;;;;;;5120445;27;45537;-69
2022/07/02 06:20:08;;;;;;;;;10.00;10.00;;;;;;;;5120027;27;45494;-69
2022/07/02 06:22:33;;;;;;;;;10.25;10.00;;;;;;;;5100978;27;45468;-69
2022/07/02 06:24:59;;;;;;;;;7.75;7.75;;;;;;;;5117037;27;45918;-69
2022/07/02 06:27:24;;;;;;;;;11.00;9.50;;;;;;;;5114746;27;45424;-69
2022/07/02 06:29:49;;;;;;;;;13.00;10.00;;;;;;;;5130506;27;45547;-68
2022/07/02 06:32:18;;;;;;;;;11.50;10.50;;;;;;;;5123317;27;45481;-68
2022/07/02 06:34:44;;;;;;;;;8.00;7.75;;;;;;;;5100639;27;47890;-69
2022/07/02 06:37:09;;;;;;;;;10.50;8.50;;;;;;;;5099295;27;45629;-69
2022/07/02 06:39:35;;;;;;;;;16.50;16.25;;;;;;;;5095808;27;45638;-69
2022/07/02 06:42:18;;;;;;;;;9.75;9.75;;;;;;;;5117689;27;45486;-69
2022/07/02 06:44:44;;;;;;;;;11.50;10.75;;;;;;;;5131259;27;45461;-69
2022/07/02 06:47:09;;;;;;;;;10.75;10.50;;;;;;;;5123962;27;45559;-69
2022/07/02 06:49:34;;;;;;;;;8.00;8.00;;;;;;;;5119350;27;45623;-68
2022/07/02 06:52:00;;;;;;;;;13.25;12.75;;;;;;;;5097444;27;45614;-68
2022/07/02 06:54:25;;;;;;;;;7.50;6.75;;;;;;;;5114620;27;46857;-69
2022/07/02 06:56:50;;;;;;;;;9.75;9.75;;;;;;;;5100230;27;45594;-69
2022/07/02 06:59:15;;;;;;;;;9.50;9.50;;;;;;;;5118765;27;45526;-69
2022/07/02 07:01:41;;;;;;;;;12.75;11.25;;;;;;;;5100442;27;45643;-68
2022/07/02 07:04:06;;;;;;;;;9.25;8.00;;;;;;;;5117045;27;45600;-69
2022/07/02 07:06:34;;;;;;;;;8.25;7.00;;;;;;;;5095417;27;45713;-69
2022/07/02 07:08:59;;;;;;;;;9.25;9.25;;;;;;;;5115304;27;45530;-68
2022/07/02 07:11:25;;;;;;;;;7.25;7.25;;;;;;;;5119086;27;45606;-70
2022/07/02 07:13:50;;;;;;;;;5.00;4.25;;;;;;;;5118913;27;45423;-68
2022/07/02 07:16:15;;;;;;;;;4.00;3.00;;;;;;;;5118417;27;45518;-69
2022/07/02 07:18:44;;;;;;;;;5.25;4.75;;;;;;;;5114183;27;45353;-69
2022/07/02 07:21:09;;;;;;;;;2.75;2.75;;;;;;;;5116055;27;45465;-69
2022/07/02 07:23:34;;;;;;;;;2.75;2.75;;;;;;;;5118936;27;45828;-69
2022/07/02 07:26:00;;;;;;;;;5.50;4.00;;;;;;;;5118876;27;46153;-70
2022/07/02 07:28:27;;;;;;;;;1.00;1.00;;;;;;;;5099918;27;45844;-69
2022/07/02 07:30:55;;;;;;;;;0.50;0.50;;;;;;;;5095951;27;45434;-69
2022/07/02 07:33:20;;;;;;;;;2.00;2.00;;;;;;;;5114216;27;46854;-69
2022/07/02 07:35:45;;;;;;;;;1.00;1.00;;;;;;;;5117976;27;45734;-69
2022/07/02 07:38:11;;;;;;;;;0.50;0.50;;;;;;;;5099978;27;45750;-68
2022/07/02 07:40:36;;;;;;;;;1.00;1.00;;;;;;;;5118939;27;45387;-68
2022/07/02 07:43:02;;;;;;;;;0.25;0.25;;;;;;;;5116456;27;45657;-69
2022/07/02 07:45:28;;;;;;;;;2.25;2.25;;;;;;;;5114139;27;45609;-68
2022/07/02 07:47:53;;;;;;;;;0.25;0.25;;;;;;;;5117817;27;45525;-68
2022/07/02 07:50:18;;;;;;;;;2.00;2.00;;;;;;;;5100198;27;45545;-68
2022/07/02 07:52:43;;;;;;;;;1.50;1.50;;;;;;;;5100030;27;47261;-68
2022/07/02 07:55:09;;;;;;;;;4.75;4.75;;;;;;;;5117203;27;45537;-68
2022/07/02 07:57:34;;;;;;;;;1.00;1.00;;;;;;;;5113941;27;45588;-68
2022/07/02 07:59:59;;;;;;;;;1.00;1.00;;;;;;;;5117161;27;45340;-68
2022/07/02 08:02:24;;;;;;;;;2.00;2.00;;;;;;;;5099814;27;47801;-68
2022/07/02 08:04:50;;;;;;;;;4.00;4.00;;;;;;;;5099996;27;45556;-69
2022/07/02 08:07:15;;;;;;;;;0.00;0.00;;;;;;;;5079163;27;45799;-69
2022/07/02 08:09:40;;;;;;;;;0.75;0.75;;;;;;;;5129598;27;45847;-70
2022/07/02 08:12:05;;;;;;;;;1.00;1.00;;;;;;;;5117256;27;46497;-70
2022/07/02 08:14:31;;;;;;;;;1.25;1.25;;;;;;;;5121862;27;45971;-69
2022/07/02 08:16:57;;;;;;;;;1.00;1.00;;;;;;;;5103433;27;45675;-70
2022/07/02 08:19:22;;;;;;;;;0.75;0.75;;;;;;;;5121542;27;45573;-69
2022/07/02 08:21:47;;;;;;;;;2.00;1.00;;;;;;;;5117259;27;45576;-70
2022/07/02 08:24:12;;;;;;;;;0.50;0.50;;;;;;;;5118095;27;45644;-69
2022/07/02 08:26:37;;;;;;;;;0.75;0.75;;;;;;;;5122039;27;45861;-69
2022/07/02 08:29:03;;;;;;;;;1.00;1.00;;;;;;;;5103096;27;45921;-68
2022/07/02 08:31:28;;;;;;;;;1.00;1.00;;;;;;;;5121593;27;45539;-68
2022/07/02 08:33:53;;;;;;;;;3.00;1.50;;;;;;;;5098945;27;46082;-69
2022/07/02 08:36:18;;;;;;;;;0.75;0.75;;;;;;;;5098348;27;45887;-69
2022/07/02 08:38:43;;;;;;;;;0.25;0.25;;;;;;;;5121635;27;45867;-69
2022/07/02 08:41:11;;;;;;;;;0.00;0.00;;;;;;;;5121300;27;45535;-68
2022/07/02 08:43:38;;;;;;;;;0.25;0.25;;;;;;;;5121390;27;45581;-67
2022/07/02 08:46:04;;;;;;;;;0.00;0.00;;;;;;;;5100255;27;46098;-69
2022/07/02 08:48:32;;;;;;;;;0.00;0.00;;;;;;;;5097862;27;45721;-69
2022/07/02 08:50:57;;;;;;;;;0.00;0.00;;;;;;;;5119521;27;46049;-68
2022/07/02 08:53:22;;;;;;;;;1.00;1.00;;;;;;;;5121115;27;45453;-69
2022/07/02 08:55:49;;;;;;;;;0.00;0.00;;;;;;;;5121574;27;45811;-69
2022/07/02 08:58:15;;;;;;;;;0.00;0.00;;;;;;;;5120504;27;45511;-69
2022/07/02 09:00:41;;;;;;;;;0.00;0.00;;;;;;;;5116281;27;45584;-68
2022/07/02 09:03:08;;;;;;;;;0.00;0.00;;;;;;;;5099658;27;45590;-70
2022/07/02 09:05:34;;;;;;;;;0.00;0.00;;;;;;;;5102516;27;45475;-68
2022/07/02 09:08:00;;;;;;;;;1.25;0.00;;;;;;;;5120799;27;45732;-69
2022/07/02 09:10:26;;;;;;;;;0.25;0.25;;;;;;;;5102099;27;47785;-68
2022/07/02 09:12:53;;;;;;;;;0.00;0.00;;;;;;;;5116786;27;45605;-68
2022/07/02 09:15:18;;;;;;;;;0.00;0.00;;;;;;;;5116823;27;45682;-67
2022/07/02 09:17:44;;;;;;;;;1.00;1.00;;;;;;;;5120774;27;45531;-69
2022/07/02 09:20:10;;;;;;;;;0.00;0.00;;;;;;;;5120793;27;45532;-68
2022/07/02 09:22:40;;;;;;;;;0.75;0.00;;;;;;;;5101570;27;45787;-68
2022/07/02 09:25:07;;;;;;;;;0.00;0.00;;;;;;;;5099937;27;45687;-69
2022/07/02 09:27:32;;;;;;;;;0.00;0.00;;;;;;;;5115856;27;45540;-68
2022/07/02 09:29:57;;;;;;;;;0.00;0.00;;;;;;;;5100392;27;47716;-70
2022/07/02 09:32:22;;;;;;;;;1.00;1.00;;;;;;;;5101845;27;46474;-69
2022/07/02 09:34:49;;;;;;;;;0.25;0.25;;;;;;;;5101505;27;45781;-69
2022/07/02 09:37:14;;;;;;;;;0.50;0.50;;;;;;;;5100960;27;45745;-70
2022/07/02 09:39:40;;;;;;;;;0.00;0.00;;;;;;;;5115484;27;46490;-69
2022/07/02 09:42:05;;;;;;;;;0.00;0.00;;;;;;;;5118032;27;45377;-68
2022/07/02 09:44:31;;;;;;;;;0.00;0.00;;;;;;;;5120499;27;45654;-68
2022/07/02 09:46:56;;;;;;;;;0.00;0.00;;;;;;;;5120785;27;45503;-70
2022/07/02 09:49:22;;;;;;;;;0.00;0.00;;;;;;;;5120107;27;46512;-69
2022/07/02 09:51:48;;;;;;;;;0.00;0.00;;;;;;;;5115970;27;45407;-70
2022/07/02 09:54:32;;;;;;;;;0.00;0.00;;;;;;;;5116715;27;45481;-71
2022/07/02 09:56:57;;;;;;;;;0.00;0.00;;;;;;;;5132592;27;45838;-69
2022/07/02 09:59:23;;;;;;;;;0.00;0.00;;;;;;;;5122814;27;45546;-69
2022/07/02 10:01:48;;;;;;;;;0.00;0.00;;;;;;;;5120297;27;45631;-70
2022/07/02 10:04:13;;;;;;;;;0.00;0.00;;;;;;;;5119403;27;45415;-69
2022/07/02 10:06:40;;;;;;;;;0.00;0.00;;;;;;;;5115781;27;45951;-70
2022/07/02 10:09:07;;;;;;;;;0.00;0.00;;;;;;;;5117363;27;45594;-68
2022/07/02 10:11:32;;;;;;;;;0.00;0.00;;;;;;;;5101065;27;45640;-68
2022/07/02 10:13:58;;;;;;;;;0.00;0.00;;;;;;;;5101227;27;45904;-69
2022/07/02 10:16:24;;;;;;;;;0.00;0.00;;;;;;;;5100958;27;45566;-69
2022/07/02 10:18:50;;;;;;;;;0.00;0.00;;;;;;;;5115242;27;46212;-70
2022/07/02 10:21:15;;;;;;;;;0.75;0.00;;;;;;;;5097304;27;45859;-68
2022/07/02 10:23:44;;;;;;;;;0.00;0.00;;;;;;;;5100175;27;45727;-74
2022/07/02 10:26:10;;;;;;;;;0.00;0.00;;;;;;;;5118944;27;45946;-72
2022/07/02 10:28:35;;;;;;;;;0.00;0.00;;;;;;;;5118481;27;46884;-72
2022/07/02 10:31:01;;;;;;;;;0.00;0.00;;;;;;;;5097577;27;46260;-71
2022/07/02 10:33:27;;;;;;;;;0.75;0.75;;;;;;;;5095274;27;45483;-71
2022/07/02 10:35:52;;;;;;;;;0.75;0.75;;;;;;;;5118451;27;45621;-73
2022/07/02 10:38:28;;;;;;;;;0.00;0.00;;;;;;;;5100197;27;46699;-72
2022/07/02 10:40:53;;;;;;;;;0.00;0.00;;;;;;;;5119099;27;45802;-72
2022/07/02 10:43:19;;;;;;;;;0.50;0.50;;;;;;;;5099476;27;45633;-71
2022/07/02 10:45:45;;;;;;;;;8.50;8.50;;;;;;;;5095091;27;45441;-71
2022/07/02 10:48:11;;;;;;;;;0.25;0.00;;;;;;;;5115206;27;46052;-70
2022/07/02 10:50:38;;;;;;;;;1.75;0.00;;;;;;;;5099203;27;45579;-70
2022/07/02 10:53:08;;;;;;;;;0.75;0.75;;;;;;;;5099747;27;45542;-69
2022/07/02 10:55:33;;;;;;;;;0.25;0.25;;;;;;;;5099223;27;45529;-72
2022/07/02 10:57:59;;;;;;;;;0.00;0.00;;;;;;;;5114909;27;45538;-69
2022/07/02 11:00:31;;;;;;;;;0.00;0.00;;;;;;;;5113444;27;45593;-69
2022/07/02 11:03:10;;;;;;;;;0.00;0.00;;;;;;;;5110796;27;45545;-69
2022/07/02 11:05:47;;;;;;;;;0.00;0.00;;;;;;;;5118955;27;45464;-69
2022/07/02 11:08:32;;;;;;;;;0.00;0.00;;;;;;;;5117903;27;46374;-70
2022/07/02 11:10:58;;;;;;;;;1.75;1.75;;;;;;;;5098861;27;45539;-69
2022/07/02 11:13:30;;;;;;;;;54.75;45.75;;;;;;;;5099127;27;45524;-68
2022/07/02 11:15:56;;;;;;;;;2.00;2.00;;;;;;;;5113917;27;45600;-69
2022/07/02 11:18:21;;;;;;;;;7.75;7.75;;;;;;;;5113359;27;46463;-69
2022/07/02 11:20:46;;;;;;;;;69.50;55.00;;;;;;;;5117459;27;45627;-69
2022/07/02 11:23:11;;;;;;;;;2.25;2.00;;;;;;;;5098973;27;45992;-70
2022/07/02 11:25:38;;;;;;;;;0.75;0.00;;;;;;;;5098668;27;46117;-70
2022/07/02 11:28:03;;;;;;;;;0.00;0.00;;;;;;;;5115088;27;45472;-69
2022/07/02 11:30:30;;;;;;;;;0.50;0.00;;;;;;;;5093655;27;45473;-70
2022/07/02 11:32:56;;;;;;;;;2.50;1.25;;;;;;;;5117003;27;46139;-70
2022/07/02 11:35:21;;;;;;;;;5.75;5.75;;;;;;;;5117271;27;45641;-69
2022/07/02 11:37:47;;;;;;;;;7.75;7.75;;;;;;;;5117662;27;45874;-69
2022/07/02 11:40:19;;;;;;;;;5.00;5.00;;;;;;;;5116296;27;46195;-68
2022/07/02 11:42:44;;;;;;;;;0.25;0.25;;;;;;;;5112796;27;45483;-68
2022/07/02 11:45:10;;;;;;;;;2.25;2.25;;;;;;;;5114988;27;45871;-69
2022/07/02 11:47:42;;;;;;;;;7.00;7.00;;;;;;;;5102041;27;47497;-69
2022/07/02 11:50:07;;;;;;;;;0.00;0.00;;;;;;;;5121199;27;45784;-68
2022/07/02 11:52:33;;;;;;;;;1.00;1.00;;;;;;;;5120972;27;45566;-69
2022/07/02 11:54:58;;;;;;;;;2.00;2.00;;;;;;;;5117579;27;45863;-70
2022/07/02 11:57:31;;;;;;;;;3.00;3.00;;;;;;;;5115995;27;45939;-69
2022/07/02 11:59:56;;;;;;;;;1.00;1.00;;;;;;;;5113912;27;46186;-70
2022/07/02 12:02:21;;;;;;;;;1.00;1.00;;;;;;;;5124860;27;45753;-69
2022/07/02 12:04:47;;;;;;;;;1.00;1.00;;;;;;;;5133294;27;45743;-68
2022/07/02 12:07:13;;;;;;;;;2.50;2.50;;;;;;;;5131848;27;46176;-69
2022/07/02 12:09:39;;;;;;;;;0.00;0.00;;;;;;;;5131451;27;45385;-70
2022/07/02 12:12:04;;;;;;;;;1.00;1.00;;;;;;;;5130824;27;45574;-68
2022/07/02 12:14:30;;;;;;;;;0.50;0.50;;;;;;;;5104408;27;46036;-70
2022/07/02 12:16:55;;;;;;;;;1.00;1.00;;;;;;;;5111583;27;47977;-70
2022/07/02 12:19:27;;;;;;;;;2.00;2.00;;;;;;;;5126266;27;45532;-70
2022/07/02 12:21:52;;;;;;;;;3.50;2.00;;;;;;;;5123660;27;45631;-70
2022/07/02 12:24:21;;;;;;;;;1.50;1.50;;;;;;;;5130643;27;45560;-69
2022/07/02 12:26:49;;;;;;;;;0.00;0.00;;;;;;;;5122203;27;46982;-70
2022/07/02 12:32:06;;;;;;;;;1.00;1.00;;;;;;;;5121544;27;46272;-70
2022/07/02 12:34:37;;;;;;;;;0.75;0.75;;;;;;;;5104799;27;45735;-70
2022/07/02 12:37:03;;;;;;;;;0.00;0.00;;;;;;;;5116997;27;47516;-70
2022/07/02 12:39:39;;;;;;;;;1.00;1.00;;;;;;;;5133069;27;46116;-69
2022/07/02 12:42:34;;;;;;;;;1.00;1.00;;;;;;;;5110172;27;45827;-69
2022/07/02 12:45:01;;;;;;;;;0.00;0.00;;;;;;;;5118019;27;45442;-68
2022/07/02 12:47:27;;;;;;;;;1.00;1.00;;;;;;;;5130922;27;45779;-69
2022/07/02 12:50:13;;;;;;;;;0.00;0.00;;;;;;;;5109608;27;45958;-70
2022/07/02 12:52:52;;;;;;;;;0.50;0.50;;;;;;;;5108124;27;45921;-70
2022/07/02 12:55:28;;;;;;;;;0.75;0.75;;;;;;;;5132266;27;45648;-68
2022/07/02 12:57:55;;;;;;;;;1.00;1.00;;;;;;;;5122433;27;46568;-69
2022/07/02 13:00:22;;;;;;;;;0.75;0.75;;;;;;;;5110762;27;45658;-68
2022/07/02 13:02:56;;;;;;;;;0.00;0.00;;;;;;;;5121766;27;45544;-68
2022/07/02 13:05:21;;;;;;;;;0.00;0.00;;;;;;;;5130409;27;45728;-71
2022/07/02 13:07:46;;;;;;;;;0.00;0.00;;;;;;;;5129220;27;46364;-70
2022/07/02 13:10:11;;;;;;;;;1.00;0.00;;;;;;;;5125835;27;45738;-71
2022/07/02 13:12:37;;;;;;;;;0.75;0.75;;;;;;;;5113290;27;45836;-73
2022/07/02 13:15:03;;;;;;;;;0.00;0.00;;;;;;;;5122426;27;45515;-75
2022/07/02 13:17:28;;;;;;;;;0.00;0.00;;;;;;;;5130272;27;46440;-70
2022/07/02 13:19:53;;;;;;;;;0.00;0.00;;;;;;;;5128334;27;45917;-71
2022/07/02 13:22:26;;;;;;;;;0.50;0.50;;;;;;;;5108241;27;45656;-72
2022/07/02 13:24:51;;;;;;;;;0.00;0.00;;;;;;;;5112520;27;46283;-74
2022/07/02 13:27:16;;;;;;;;;2.00;1.00;;;;;;;;5121420;27;46145;-70
2022/07/02 13:29:41;;;;;;;;;0.00;0.00;;;;;;;;5131056;27;45627;-73
2022/07/02 13:32:07;;;;;;;;;0.25;0.25;;;;;;;;5129807;27;45717;-71
2022/07/02 13:34:33;;;;;;;;;0.00;0.00;;;;;;;;5128370;27;45470;-71
2022/07/02 13:36:58;;;;;;;;;0.00;0.00;;;;;;;;5113388;27;46825;-71
2022/07/02 13:39:23;;;;;;;;;0.00;0.00;;;;;;;;5121297;27;45737;-72
2022/07/02 13:41:49;;;;;;;;;2.00;1.00;;;;;;;;5111004;27;45774;-71
2022/07/02 13:44:14;;;;;;;;;0.50;0.50;;;;;;;;5130853;27;45539;-70
2022/07/02 13:46:39;;;;;;;;;1.00;1.00;;;;;;;;5129783;27;46376;-72
2022/07/02 13:49:04;;;;;;;;;0.00;0.00;;;;;;;;5131355;27;47714;-73
2022/07/02 13:51:30;;;;;;;;;0.25;0.25;;;;;;;;5112231;27;46137;-69
2022/07/02 13:53:56;;;;;;;;;0.50;0.50;;;;;;;;5127076;27;45465;-72
2022/07/02 13:56:22;;;;;;;;;0.00;0.00;;;;;;;;5134130;27;46434;-72
2022/07/02 13:58:47;;;;;;;;;0.00;0.00;;;;;;;;5132509;27;45773;-72
2022/07/02 14:01:13;;;;;;;;;0.00;0.00;;;;;;;;5129771;27;45633;-72
2022/07/02 14:03:38;;;;;;;;;0.00;0.00;;;;;;;;5113053;27;45451;-74
2022/07/02 14:06:03;;;;;;;;;0.75;0.00;;;;;;;;5128135;27;46447;-72
2022/07/02 14:08:28;;;;;;;;;0.00;0.00;;;;;;;;5110711;27;45660;-73
2022/07/02 14:10:55;;;;;;;;;0.00;0.00;;;;;;;;5132143;27;45640;-74
2022/07/02 14:13:21;;;;;;;;;0.00;0.00;;;;;;;;5112224;27;45402;-73
2022/07/02 14:15:46;;;;;;;;;2.00;0.00;;;;;;;;5112913;27;48490;-72
2022/07/02 14:18:11;;;;;;;;;1.00;1.00;;;;;;;;5129039;27;45332;-70
2022/07/02 14:20:36;;;;;;;;;0.00;0.00;;;;;;;;5110616;27;45584;-70
2022/07/02 14:23:01;;;;;;;;;0.00;0.00;;;;;;;;5132169;27;45413;-71
2022/07/02 14:25:27;;;;;;;;;0.00;0.00;;;;;;;;5132243;27;46207;-71
2022/07/02 14:27:52;;;;;;;;;0.75;0.75;;;;;;;;5114735;27;45537;-73
2022/07/02 14:30:18;;;;;;;;;0.00;0.00;;;;;;;;5133806;27;45418;-74
2022/07/02 14:32:43;;;;;;;;;0.00;0.00;;;;;;;;5114091;27;45974;-71
2022/07/02 14:35:08;;;;;;;;;0.00;0.00;;;;;;;;5116761;27;47575;-71
2022/07/02 14:37:35;;;;;;;;;0.75;0.75;;;;;;;;5119455;27;45743;-71
2022/07/02 14:40:00;;;;;;;;;0.00;0.00;;;;;;;;5130402;27;45538;-70
2022/07/02 14:42:26;;;;;;;;;0.00;0.00;;;;;;;;5111646;27;45575;-71
2022/07/02 14:44:51;;;;;;;;;0.00;0.00;;;;;;;;5128910;27;45633;-71